sensor_id;sensor_type;location;lat;lon;timestamp;pressure;altitude;pressure_sealevel;temperature;humidity
16431;BME280;8325;49.284;7.238;2022-07-29T04:01:18;98548.56;;;15.80;70.32
16431;BME280;8325;49.284;7.238;2022-07-29T04:05:31;98547.94;;;15.78;70.40
16431;BME280;8325;49.284;7.238;2022-07-29T04:09:43;98548.19;;;15.77;69.92
16431;BME280;8325;49.284;7.238;2022-07-29T04:13:55;98553.84;;;15.80;70.46
16431;BME280;8325;49.284;7.238;2022-07-29T04:18:07;98562.16;;;15.77;70.56
16431;BME280;8325;49.284;7.238;2022-07-29T04:22:19;98565.59;;;15.78;70.53
16431;BME280;8325;49.284;7.238;2022-07-29T04:26:34;98559.94;;;15.74;70.81
16431;BME280;8325;49.284;7.238;2022-07-29T04:30:46;98564.16;;;15.75;70.79
16431;BME280;8325;49.284;7.238;2022-07-29T04:34:58;98565.59;;;15.71;70.67
16431;BME280;8325;49.284;7.238;2022-07-29T04:39:10;98572.03;;;15.88;70.24
16431;BME280;8325;49.284;7.238;2022-07-29T04:43:29;98581.56;;;15.90;70.43
16431;BME280;8325;49.284;7.238;2022-07-29T04:47:47;98582.56;;;15.95;70.85
16431;BME280;8325;49.284;7.238;2022-07-29T04:51:59;98582.16;;;15.98;70.85
16431;BME280;8325;49.284;7.238;2022-07-29T04:56:10;98580.47;;;16.10;70.27
16431;BME280;8325;49.284;7.238;2022-07-29T05:00:23;98583.06;;;16.24;70.33
16431;BME280;8325;49.284;7.238;2022-07-29T05:04:44;98581.84;;;16.26;69.82
16431;BME280;8325;49.284;7.238;2022-07-29T05:08:55;98585.19;;;16.40;69.48
16431;BME280;8325;49.284;7.238;2022-07-29T05:13:07;98595.25;;;16.63;69.10
16431;BME280;8325;49.284;7.238;2022-07-29T05:17:19;98599.22;;;16.79;68.43
16431;BME280;8325;49.284;7.238;2022-07-29T05:21:32;98598.38;;;16.85;68.77
16431;BME280;8325;49.284;7.238;2022-07-29T05:25:45;98597.38;;;17.11;68.04
16431;BME280;8325;49.284;7.238;2022-07-29T05:29:58;98600.78;;;17.18;67.68
16431;BME280;8325;49.284;7.238;2022-07-29T05:34:10;98595.66;;;17.23;67.61
16431;BME280;8325;49.284;7.238;2022-07-29T05:38:25;98593.38;;;17.27;67.35
16431;BME280;8325;49.284;7.238;2022-07-29T05:42:49;98592.34;;;17.53;66.76
16431;BME280;8325;49.284;7.238;2022-07-29T05:47:13;98595.94;;;18.21;64.42
16431;BME280;8325;49.284;7.238;2022-07-29T05:51:28;98581.50;;;22.10;53.22
16431;BME280;8325;49.284;7.238;2022-07-29T05:55:53;98572.63;;;26.38;42.27
16431;BME280;8325;49.284;7.238;2022-07-29T06:00:05;98572.53;;;27.56;40.33
16431;BME280;8325;49.284;7.238;2022-07-29T06:04:28;98577.72;;;29.14;36.49
16431;BME280;8325;49.284;7.238;2022-07-29T06:09:14;98582.81;;;31.83;31.60
16431;BME280;8325;49.284;7.238;2022-07-29T06:13:34;98582.97;;;33.14;29.39
16431;BME280;8325;49.284;7.238;2022-07-29T06:17:46;98591.69;;;31.35;31.60
16431;BME280;8325;49.284;7.238;2022-07-29T06:22:11;98586.00;;;31.46;31.32
16431;BME280;8325;49.284;7.238;2022-07-29T06:26:23;98589.78;;;31.76;30.61
16431;BME280;8325;49.284;7.238;2022-07-29T06:30:42;98592.69;;;31.88;30.28
16431;BME280;8325;49.284;7.238;2022-07-29T06:35:00;98606.91;;;28.26;36.73
16431;BME280;8325;49.284;7.238;2022-07-29T06:39:34;98613.81;;;25.82;41.22
16431;BME280;8325;49.284;7.238;2022-07-29T06:43:45;98612.72;;;25.78;42.31
16431;BME280;8325;49.284;7.238;2022-07-29T06:48:04;98613.88;;;26.81;40.35
16431;BME280;8325;49.284;7.238;2022-07-29T06:52:16;98622.16;;;27.24;39.42
16431;BME280;8325;49.284;7.238;2022-07-29T06:56:27;98620.84;;;27.56;39.60
16431;BME280;8325;49.284;7.238;2022-07-29T07:00:39;98625.38;;;26.32;40.67
16431;BME280;8325;49.284;7.238;2022-07-29T07:04:51;98633.66;;;25.40;42.37
16431;BME280;8325;49.284;7.238;2022-07-29T07:09:03;98635.09;;;24.49;44.84
16431;BME280;8325;49.284;7.238;2022-07-29T07:13:14;98631.66;;;23.96;45.80
16431;BME280;8325;49.284;7.238;2022-07-29T07:17:28;98643.03;;;23.44;47.07
16431;BME280;8325;49.284;7.238;2022-07-29T07:21:39;98636.50;;;23.25;47.86
16431;BME280;8325;49.284;7.238;2022-07-29T07:25:51;98638.13;;;22.98;48.58
16431;BME280;8325;49.284;7.238;2022-07-29T07:30:05;98638.22;;;23.41;48.05
16431;BME280;8325;49.284;7.238;2022-07-29T07:34:17;98631.47;;;24.13;46.51
16431;BME280;8325;49.284;7.238;2022-07-29T07:38:40;98625.63;;;25.15;45.42
16431;BME280;8325;49.284;7.238;2022-07-29T07:42:51;98629.06;;;25.71;42.95
16431;BME280;8325;49.284;7.238;2022-07-29T07:47:03;98622.03;;;26.01;42.18
16431;BME280;8325;49.284;7.238;2022-07-29T07:51:22;98624.28;;;26.44;41.23
16431;BME280;8325;49.284;7.238;2022-07-29T07:55:39;98627.59;;;26.80;39.73
16431;BME280;8325;49.284;7.238;2022-07-29T08:00:13;98625.22;;;26.73;39.83
16431;BME280;8325;49.284;7.238;2022-07-29T08:04:24;98626.28;;;26.72;39.09
16431;BME280;8325;49.284;7.238;2022-07-29T08:08:39;98631.69;;;26.62;39.63
16431;BME280;8325;49.284;7.238;2022-07-29T08:12:51;98631.50;;;26.93;40.07
16431;BME280;8325;49.284;7.238;2022-07-29T08:17:02;98637.97;;;26.86;39.24
16431;BME280;8325;49.284;7.238;2022-07-29T08:21:14;98634.72;;;26.95;39.81
16431;BME280;8325;49.284;7.238;2022-07-29T08:25:26;98634.41;;;27.01;38.59
16431;BME280;8325;49.284;7.238;2022-07-29T08:29:38;98641.03;;;27.14;39.04
16431;BME280;8325;49.284;7.238;2022-07-29T08:33:50;98641.56;;;27.16;39.24
16431;BME280;8325;49.284;7.238;2022-07-29T08:38:02;98641.56;;;27.16;38.67
16431;BME280;8325;49.284;7.238;2022-07-29T08:42:14;98646.47;;;26.99;38.72
16431;BME280;8325;49.284;7.238;2022-07-29T08:46:28;98649.56;;;26.77;39.16
16431;BME280;8325;49.284;7.238;2022-07-29T08:50:40;98644.66;;;26.94;38.38
16431;BME280;8325;49.284;7.238;2022-07-29T08:54:56;98643.38;;;26.81;38.51
16431;BME280;8325;49.284;7.238;2022-07-29T08:59:09;98646.50;;;26.94;39.22
16431;BME280;8325;49.284;7.238;2022-07-29T09:03:25;98633.72;;;26.80;38.99
16431;BME280;8325;49.284;7.238;2022-07-29T09:07:39;98632.25;;;27.03;39.40
16431;BME280;8325;49.284;7.238;2022-07-29T09:11:51;98639.53;;;26.98;37.85
16431;BME280;8325;49.284;7.238;2022-07-29T09:16:05;98638.72;;;26.97;38.17
16431;BME280;8325;49.284;7.238;2022-07-29T09:20:21;98644.00;;;27.07;37.98
16431;BME280;8325;49.284;7.238;2022-07-29T09:24:46;98635.09;;;27.12;38.44
16431;BME280;8325;49.284;7.238;2022-07-29T09:28:59;98635.53;;;27.29;37.93
16431;BME280;8325;49.284;7.238;2022-07-29T09:33:10;98631.41;;;27.71;37.12
16431;BME280;8325;49.284;7.238;2022-07-29T09:37:28;98627.78;;;27.86;36.61
16431;BME280;8325;49.284;7.238;2022-07-29T09:41:48;98619.34;;;27.69;35.92
16431;BME280;8325;49.284;7.238;2022-07-29T09:46:10;98622.25;;;27.77;36.49
16431;BME280;8325;49.284;7.238;2022-07-29T09:50:37;98622.28;;;27.72;31.84
16431;BME280;8325;49.284;7.238;2022-07-29T09:54:49;98619.22;;;27.55;31.85
16431;BME280;8325;49.284;7.238;2022-07-29T09:59:08;98626.22;;;27.51;32.83
16431;BME280;8325;49.284;7.238;2022-07-29T10:03:21;98628.88;;;27.56;33.26
16431;BME280;8325;49.284;7.238;2022-07-29T10:07:47;98628.53;;;27.63;34.62
16431;BME280;8325;49.284;7.238;2022-07-29T10:12:06;98622.03;;;27.69;35.54
16431;BME280;8325;49.284;7.238;2022-07-29T10:16:18;98621.16;;;27.79;34.27
16431;BME280;8325;49.284;7.238;2022-07-29T10:20:30;98613.97;;;27.98;34.48
16431;BME280;8325;49.284;7.238;2022-07-29T10:24:41;98609.50;;;28.12;33.94
16431;BME280;8325;49.284;7.238;2022-07-29T10:28:53;98604.66;;;28.14;33.85
16431;BME280;8325;49.284;7.238;2022-07-29T10:42:18;98597.97;;;27.88;32.89
16431;BME280;8325;49.284;7.238;2022-07-29T10:46:45;98598.31;;;28.05;34.53
16431;BME280;8325;49.284;7.238;2022-07-29T10:51:02;98594.53;;;28.06;33.46
16431;BME280;8325;49.284;7.238;2022-07-29T10:55:36;98589.06;;;27.68;33.58
16431;BME280;8325;49.284;7.238;2022-07-29T11:09:18;98588.06;;;28.07;32.68
16431;BME280;8325;49.284;7.238;2022-07-29T11:13:52;98582.72;;;28.07;30.26
16431;BME280;8325;49.284;7.238;2022-07-29T11:18:08;98583.78;;;28.30;29.18
16431;BME280;8325;49.284;7.238;2022-07-29T11:22:35;98584.38;;;28.65;28.88
16431;BME280;8325;49.284;7.238;2022-07-29T11:27:11;98582.25;;;28.81;28.42
16431;BME280;8325;49.284;7.238;2022-07-29T11:31:40;98591.38;;;29.18;28.98
16431;BME280;8325;49.284;7.238;2022-07-29T11:36:12;98579.16;;;29.06;28.96
16431;BME280;8325;49.284;7.238;2022-07-29T11:40:27;98585.63;;;28.73;29.89
16431;BME280;8325;49.284;7.238;2022-07-29T11:45:04;98586.91;;;28.75;28.96
16431;BME280;8325;49.284;7.238;2022-07-29T11:49:44;98590.41;;;28.76;29.51
16431;BME280;8325;49.284;7.238;2022-07-29T11:53:58;98587.84;;;28.84;29.98
16431;BME280;8325;49.284;7.238;2022-07-29T11:58:21;98592.97;;;28.67;28.48
16431;BME280;8325;49.284;7.238;2022-07-29T12:02:41;98586.75;;;28.48;29.51
16431;BME280;8325;49.284;7.238;2022-07-29T12:06:59;98588.66;;;28.47;29.01
16431;BME280;8325;49.284;7.238;2022-07-29T12:11:18;98590.28;;;28.48;29.06
16431;BME280;8325;49.284;7.238;2022-07-29T12:15:32;98594.41;;;28.35;29.58
16431;BME280;8325;49.284;7.238;2022-07-29T12:19:59;98590.13;;;28.15;29.78
16431;BME280;8325;49.284;7.238;2022-07-29T12:24:13;98597.56;;;28.23;30.16
16431;BME280;8325;49.284;7.238;2022-07-29T12:28:25;98590.22;;;28.29;30.30
16431;BME280;8325;49.284;7.238;2022-07-29T12:32:46;98592.75;;;28.20;30.13
16431;BME280;8325;49.284;7.238;2022-07-29T12:36:58;98598.91;;;28.02;29.87
16431;BME280;8325;49.284;7.238;2022-07-29T12:41:10;98600.94;;;27.86;30.19
16431;BME280;8325;49.284;7.238;2022-07-29T12:45:31;98591.91;;;28.01;30.81
16431;BME280;8325;49.284;7.238;2022-07-29T12:49:44;98589.59;;;28.13;30.85
16431;BME280;8325;49.284;7.238;2022-07-29T12:54:07;98591.88;;;28.25;30.54
16431;BME280;8325;49.284;7.238;2022-07-29T12:58:34;98590.56;;;28.22;29.23
16431;BME280;8325;49.284;7.238;2022-07-29T13:02:55;98591.44;;;28.18;30.15
16431;BME280;8325;49.284;7.238;2022-07-29T13:07:07;98591.72;;;28.16;29.20
16431;BME280;8325;49.284;7.238;2022-07-29T13:11:39;98590.34;;;28.19;29.01
16431;BME280;8325;49.284;7.238;2022-07-29T13:16:07;98591.72;;;28.16;29.20
16431;BME280;8325;49.284;7.238;2022-07-29T13:20:23;98589.88;;;28.36;28.91
16431;BME280;8325;49.284;7.238;2022-07-29T13:24:53;98587.59;;;28.48;28.40
16431;BME280;8325;49.284;7.238;2022-07-29T13:29:05;98595.13;;;28.46;29.24
16431;BME280;8325;49.284;7.238;2022-07-29T13:33:17;98591.84;;;28.87;28.80
16431;BME280;8325;49.284;7.238;2022-07-29T13:37:29;98595.88;;;29.36;26.94
16431;BME280;8325;49.284;7.238;2022-07-29T13:41:41;98591.13;;;29.60;27.09
16431;BME280;8325;49.284;7.238;2022-07-29T13:45:53;98583.72;;;29.71;26.81
16431;BME280;8325;49.284;7.238;2022-07-29T13:50:06;98571.75;;;30.05;26.93
16431;BME280;8325;49.284;7.238;2022-07-29T13:54:19;98574.81;;;29.98;26.40
16431;BME280;8325;49.284;7.238;2022-07-29T13:58:32;98564.53;;;30.00;26.30
16431;BME280;8325;49.284;7.238;2022-07-29T14:02:44;98562.34;;;29.89;27.22
16431;BME280;8325;49.284;7.238;2022-07-29T14:06:56;98568.53;;;30.03;27.65
16431;BME280;8325;49.284;7.238;2022-07-29T14:11:07;98561.94;;;29.95;27.95
16431;BME280;8325;49.284;7.238;2022-07-29T14:15:19;98563.16;;;30.03;26.90
16431;BME280;8325;49.284;7.238;2022-07-29T14:19:31;98551.19;;;29.95;27.15
16431;BME280;8325;49.284;7.238;2022-07-29T14:23:46;98546.19;;;29.47;26.99
16431;BME280;8325;49.284;7.238;2022-07-29T14:27:59;98549.00;;;29.09;27.91
16431;BME280;8325;49.284;7.238;2022-07-29T14:32:11;98545.78;;;29.54;28.26
16431;BME280;8325;49.284;7.238;2022-07-29T14:36:22;98539.84;;;29.85;27.12
16431;BME280;8325;49.284;7.238;2022-07-29T14:40:34;98543.81;;;29.73;26.78
16431;BME280;8325;49.284;7.238;2022-07-29T14:44:46;98546.41;;;29.92;26.11
16431;BME280;8325;49.284;7.238;2022-07-29T14:48:59;98545.09;;;30.03;25.57
16431;BME280;8325;49.284;7.238;2022-07-29T14:53:11;98553.88;;;30.09;25.13
16431;BME280;8325;49.284;7.238;2022-07-29T14:57:25;98553.84;;;30.23;24.87
16431;BME280;8325;49.284;7.238;2022-07-29T15:01:37;98544.03;;;30.41;24.73
16431;BME280;8325;49.284;7.238;2022-07-29T15:05:49;98551.75;;;30.34;24.99
16431;BME280;8325;49.284;7.238;2022-07-29T15:10:00;98548.25;;;30.33;25.06
16431;BME280;8325;49.284;7.238;2022-07-29T15:14:12;98552.28;;;30.08;25.65
16431;BME280;8325;49.284;7.238;2022-07-29T15:18:24;98547.69;;;30.09;27.10
16431;BME280;8325;49.284;7.238;2022-07-29T15:22:36;98546.78;;;30.13;27.56
16431;BME280;8325;49.284;7.238;2022-07-29T15:26:49;98548.09;;;30.02;27.04
16431;BME280;8325;49.284;7.238;2022-07-29T15:31:01;98533.16;;;29.82;26.70
16431;BME280;8325;49.284;7.238;2022-07-29T15:35:12;98535.94;;;29.77;26.17
16431;BME280;8325;49.284;7.238;2022-07-29T15:39:25;98552.41;;;29.75;25.60
16431;BME280;8325;49.284;7.238;2022-07-29T15:43:36;98546.94;;;29.80;26.18
16431;BME280;8325;49.284;7.238;2022-07-29T15:47:48;98546.00;;;29.57;26.66
16431;BME280;8325;49.284;7.238;2022-07-29T15:52:08;98545.47;;;28.95;27.65
16431;BME280;8325;49.284;7.238;2022-07-29T15:56:23;98547.72;;;28.55;28.37
16431;BME280;8325;49.284;7.238;2022-07-29T16:00:34;98555.44;;;28.38;29.19
16431;BME280;8325;49.284;7.238;2022-07-29T16:04:46;98556.38;;;28.09;29.43
16431;BME280;8325;49.284;7.238;2022-07-29T16:08:58;98552.34;;;27.88;29.82
16431;BME280;8325;49.284;7.238;2022-07-29T16:13:10;98546.63;;;27.70;30.45
16431;BME280;8325;49.284;7.238;2022-07-29T16:17:28;98549.41;;;27.60;30.31
16431;BME280;8325;49.284;7.238;2022-07-29T16:21:39;98550.56;;;27.54;30.98
16431;BME280;8325;49.284;7.238;2022-07-29T16:25:51;98552.91;;;27.61;31.50
16431;BME280;8325;49.284;7.238;2022-07-29T16:30:11;98551.94;;;27.75;31.09
16431;BME280;8325;49.284;7.238;2022-07-29T16:34:24;98546.66;;;28.13;31.75
16431;BME280;8325;49.284;7.238;2022-07-29T16:38:35;98539.44;;;28.33;31.01
16431;BME280;8325;49.284;7.238;2022-07-29T16:42:57;98532.38;;;28.56;30.58
16431;BME280;8325;49.284;7.238;2022-07-29T16:47:09;98541.59;;;28.68;30.97
16431;BME280;8325;49.284;7.238;2022-07-29T16:51:21;98545.00;;;28.74;31.17
16431;BME280;8325;49.284;7.238;2022-07-29T16:55:33;98544.78;;;28.71;29.78
16431;BME280;8325;49.284;7.238;2022-07-29T16:59:44;98548.06;;;28.67;29.92
16431;BME280;8325;49.284;7.238;2022-07-29T17:03:56;98544.59;;;28.48;30.57
16431;BME280;8325;49.284;7.238;2022-07-29T17:08:16;98550.91;;;28.57;30.93
16431;BME280;8325;49.284;7.238;2022-07-29T17:12:28;98548.28;;;28.52;31.06
16431;BME280;8325;49.284;7.238;2022-07-29T17:16:39;98552.22;;;28.41;31.54
16431;BME280;8325;49.284;7.238;2022-07-29T17:20:51;98565.59;;;28.03;31.30
16431;BME280;8325;49.284;7.238;2022-07-29T17:25:03;98568.84;;;28.00;30.87
16431;BME280;8325;49.284;7.238;2022-07-29T17:29:15;98563.03;;;27.93;31.52
16431;BME280;8325;49.284;7.238;2022-07-29T17:33:27;98558.00;;;27.86;31.23
16431;BME280;8325;49.284;7.238;2022-07-29T17:37:39;98573.78;;;27.93;31.21
16431;BME280;8325;49.284;7.238;2022-07-29T17:41:50;98575.53;;;27.79;31.75
16431;BME280;8325;49.284;7.238;2022-07-29T17:46:02;98590.75;;;27.59;32.52
16431;BME280;8325;49.284;7.238;2022-07-29T17:50:14;98593.81;;;27.47;32.51
16431;BME280;8325;49.284;7.238;2022-07-29T17:54:25;98587.75;;;27.37;32.62
16431;BME280;8325;49.284;7.238;2022-07-29T17:58:37;98590.00;;;27.24;32.80
16431;BME280;8325;49.284;7.238;2022-07-29T18:02:49;98599.53;;;27.06;33.27
16431;BME280;8325;49.284;7.238;2022-07-29T18:07:01;98598.31;;;26.89;33.90
16431;BME280;8325;49.284;7.238;2022-07-29T18:11:13;98604.03;;;26.72;34.31
16431;BME280;8325;49.284;7.238;2022-07-29T18:15:25;98603.31;;;26.61;34.29
16431;BME280;8325;49.284;7.238;2022-07-29T18:19:37;98613.81;;;26.47;35.32
16431;BME280;8325;49.284;7.238;2022-07-29T18:23:48;98613.06;;;26.36;35.42
16431;BME280;8325;49.284;7.238;2022-07-29T18:28:03;98615.50;;;26.28;35.33
16431;BME280;8325;49.284;7.238;2022-07-29T18:32:14;98621.44;;;26.20;35.67
16431;BME280;8325;49.284;7.238;2022-07-29T18:36:26;98630.31;;;26.10;35.78
16431;BME280;8325;49.284;7.238;2022-07-29T18:40:37;98639.97;;;26.06;35.86
16431;BME280;8325;49.284;7.238;2022-07-29T18:44:52;98645.88;;;26.03;36.25
16431;BME280;8325;49.284;7.238;2022-07-29T18:49:05;98652.84;;;25.93;36.95
16431;BME280;8325;49.284;7.238;2022-07-29T18:53:16;98669.97;;;25.77;37.41
16431;BME280;8325;49.284;7.238;2022-07-29T18:57:28;98665.16;;;25.64;38.18
16431;BME280;8325;49.284;7.238;2022-07-29T19:02:00;98682.31;;;25.53;38.52
16431;BME280;8325;49.284;7.238;2022-07-29T19:06:12;98689.25;;;25.38;39.37
16431;BME280;8325;49.284;7.238;2022-07-29T19:10:24;98696.47;;;25.22;39.83
16431;BME280;8325;49.284;7.238;2022-07-29T19:14:36;98700.94;;;25.12;40.45
16431;BME280;8325;49.284;7.238;2022-07-29T19:18:47;98712.16;;;24.98;40.48
16431;BME280;8325;49.284;7.238;2022-07-29T19:22:59;98714.81;;;24.88;41.16
16431;BME280;8325;49.284;7.238;2022-07-29T19:27:10;98726.00;;;24.80;41.16
16431;BME280;8325;49.284;7.238;2022-07-29T19:31:22;98730.78;;;24.73;41.47
16431;BME280;8325;49.284;7.238;2022-07-29T19:35:34;98743.03;;;24.64;41.87
16431;BME280;8325;49.284;7.238;2022-07-29T19:39:46;98744.59;;;24.54;42.18
16431;BME280;8325;49.284;7.238;2022-07-29T19:43:57;98749.88;;;24.44;42.29
16431;BME280;8325;49.284;7.238;2022-07-29T19:48:09;98753.31;;;24.40;42.72
16431;BME280;8325;49.284;7.238;2022-07-29T19:52:20;98776.44;;;24.29;42.77
16431;BME280;8325;49.284;7.238;2022-07-29T19:56:32;98778.78;;;24.15;42.92
16431;BME280;8325;49.284;7.238;2022-07-29T20:00:44;98781.63;;;24.03;43.80
16431;BME280;8325;49.284;7.238;2022-07-29T20:04:56;98785.03;;;23.94;44.08
16431;BME280;8325;49.284;7.238;2022-07-29T20:09:09;98788.94;;;23.81;44.65
16431;BME280;8325;49.284;7.238;2022-07-29T20:13:31;98785.16;;;23.77;44.49
16431;BME280;8325;49.284;7.238;2022-07-29T20:17:43;98790.03;;;23.58;45.12
16431;BME280;8325;49.284;7.238;2022-07-29T20:21:55;98793.38;;;23.43;45.82
16431;BME280;8325;49.284;7.238;2022-07-29T20:26:07;98796.41;;;23.30;46.33
16431;BME280;8325;49.284;7.238;2022-07-29T20:30:21;98805.81;;;23.10;46.92
16431;BME280;8325;49.284;7.238;2022-07-29T20:34:33;98813.28;;;22.91;47.34
16431;BME280;8325;49.284;7.238;2022-07-29T20:38:44;98813.13;;;22.81;47.42
16431;BME280;8325;49.284;7.238;2022-07-29T20:42:56;98819.00;;;22.61;48.04
16431;BME280;8325;49.284;7.238;2022-07-29T20:47:07;98814.03;;;22.48;48.84
16431;BME280;8325;49.284;7.238;2022-07-29T20:51:20;98821.31;;;22.36;49.47
16431;BME280;8325;49.284;7.238;2022-07-29T20:55:32;98832.28;;;22.22;49.77
16431;BME280;8325;49.284;7.238;2022-07-29T20:59:43;98827.94;;;22.16;49.78
16431;BME280;8325;49.284;7.238;2022-07-29T21:03:56;98828.97;;;21.98;50.32
16431;BME280;8325;49.284;7.238;2022-07-29T21:08:07;98836.59;;;21.95;50.66
16431;BME280;8325;49.284;7.238;2022-07-29T21:12:19;98837.72;;;21.82;51.11
16431;BME280;8325;49.284;7.238;2022-07-29T21:16:31;98840.25;;;21.60;51.53
16431;BME280;8325;49.284;7.238;2022-07-29T21:20:44;98849.91;;;21.49;52.41
16431;BME280;8325;49.284;7.238;2022-07-29T21:24:55;98862.75;;;21.41;52.49
16431;BME280;8325;49.284;7.238;2022-07-29T21:29:07;98859.19;;;21.23;53.13
